Time;durP1;ratioP1;P1;durP2;ratioP2;P2;SDS_P1;SDS_P2;PMS_P1;PMS_P2;Temp;Humidity;BMP_temperature;BMP_pressure;BME280_temperature;BME280_humidity;BME280_pressure;Samples;Min_cycle;Max_cycle;Signal;HPM_P1;HPM_P2
2023/04/19 00:00:34;;;;;;;10.18;7.72;;;;;;;;;;4888937;28;100317;-76
2023/04/19 00:03:01;;;;;;;9.10;8.18;;;;;;;;;;4892195;28;99926;-77
2023/04/19 00:05:28;;;;;;;10.48;8.25;;;;;;;;;;4888381;28;100339;-76
2023/04/19 00:07:55;;;;;;;8.63;7.85;;;;;;;;;;4889384;28;99912;-76
2023/04/19 00:10:21;;;;;;;9.70;8.70;;;;;;;;;;4888836;28;98932;-76
2023/04/19 00:12:47;;;;;;;11.00;9.07;;;;;;;;;;4888989;28;100331;-76
2023/04/19 00:15:14;;;;;;;8.80;8.07;;;;;;;;;;4888777;28;100086;-77
2023/04/19 00:17:40;;;;;;;9.02;8.05;;;;;;;;;;4889645;28;99865;-77
2023/04/19 00:20:07;;;;;;;9.57;8.68;;;;;;;;;;4888567;28;100613;-77
2023/04/19 00:22:33;;;;;;;9.32;8.43;;;;;;;;;;4889450;28;99243;-77
2023/04/19 00:25:00;;;;;;;17.02;9.00;;;;;;;;;;4892875;28;100376;-77
2023/04/19 00:27:27;;;;;;;9.32;8.43;;;;;;;;;;4888605;28;100220;-77
2023/04/19 00:29:53;;;;;;;10.63;8.93;;;;;;;;;;4891251;28;98578;-77
2023/04/19 00:32:20;;;;;;;9.95;9.02;;;;;;;;;;4889432;28;100359;-77
2023/04/19 00:34:46;;;;;;;10.77;9.07;;;;;;;;;;4889210;28;98763;-77
2023/04/19 00:37:12;;;;;;;9.27;8.43;;;;;;;;;;4889403;28;98989;-76
2023/04/19 00:39:39;;;;;;;9.45;8.65;;;;;;;;;;4881866;28;99195;-76
2023/04/19 00:42:05;;;;;;;10.15;9.15;;;;;;;;;;4888681;28;99964;-76
2023/04/19 00:44:32;;;;;;;11.25;9.10;;;;;;;;;;4886588;28;100256;-76
2023/04/19 00:46:58;;;;;;;12.65;9.25;;;;;;;;;;4891264;28;100249;-76
2023/04/19 00:49:25;;;;;;;12.65;9.70;;;;;;;;;;4888202;28;99645;-76
2023/04/19 00:51:52;;;;;;;11.45;8.63;;;;;;;;;;4888457;28;100271;-76
2023/04/19 00:54:18;;;;;;;10.77;9.70;;;;;;;;;;4887119;28;99129;-77
2023/04/19 00:56:47;;;;;;;10.90;9.15;;;;;;;;;;4889173;28;99003;-76
2023/04/19 00:59:16;;;;;;;12.30;9.25;;;;;;;;;;4888540;28;99460;-76
2023/04/19 01:01:44;;;;;;;15.43;10.30;;;;;;;;;;4903118;28;100706;-76
2023/04/19 01:04:11;;;;;;;10.63;9.48;;;;;;;;;;4888967;28;98896;-76
2023/04/19 01:06:39;;;;;;;13.00;9.07;;;;;;;;;;4888525;28;98420;-76
2023/04/19 01:09:05;;;;;;;13.15;10.27;;;;;;;;;;4889706;28;99253;-76
2023/04/19 01:11:31;;;;;;;11.02;10.00;;;;;;;;;;4887928;28;100175;-76
2023/04/19 01:13:58;;;;;;;24.83;11.18;;;;;;;;;;4888164;28;99332;-76
2023/04/19 01:16:25;;;;;;;9.98;8.98;;;;;;;;;;4886231;28;99991;-76
2023/04/19 01:18:52;;;;;;;12.10;9.88;;;;;;;;;;4886781;28;102310;-76
2023/04/19 01:21:18;;;;;;;12.13;10.13;;;;;;;;;;4886343;28;101019;-76
2023/04/19 01:23:46;;;;;;;15.25;9.88;;;;;;;;;;4885803;28;100797;-76
2023/04/19 01:26:15;;;;;;;19.73;9.45;;;;;;;;;;4888157;28;99219;-76
2023/04/19 01:28:41;;;;;;;15.10;10.75;;;;;;;;;;4890628;28;98858;-76
2023/04/19 01:31:08;;;;;;;10.75;9.65;;;;;;;;;;4888031;28;99410;-77
2023/04/19 01:33:35;;;;;;;12.30;11.07;;;;;;;;;;4887860;28;98695;-76
2023/04/19 01:36:01;;;;;;;12.45;10.25;;;;;;;;;;4886913;28;101041;-76
2023/04/19 01:38:28;;;;;;;12.95;8.70;;;;;;;;;;4886210;28;101315;-76
2023/04/19 01:40:56;;;;;;;11.00;9.85;;;;;;;;;;4879589;28;100959;-76
2023/04/19 01:43:23;;;;;;;14.43;10.82;;;;;;;;;;4885497;28;101420;-77
2023/04/19 01:45:49;;;;;;;11.45;10.38;;;;;;;;;;4886522;28;102101;-77
2023/04/19 01:48:18;;;;;;;15.27;11.02;;;;;;;;;;4902087;28;101180;-77
2023/04/19 01:50:44;;;;;;;10.68;9.68;;;;;;;;;;4889967;28;99187;-77
2023/04/19 01:53:10;;;;;;;15.73;10.27;;;;;;;;;;4888136;28;98751;-77
2023/04/19 01:55:37;;;;;;;16.13;11.27;;;;;;;;;;4887496;28;99064;-78
2023/04/19 01:58:03;;;;;;;13.65;10.85;;;;;;;;;;4889105;28;98927;-77
2023/04/19 02:00:30;;;;;;;12.40;10.02;;;;;;;;;;4886402;28;101197;-76
2023/04/19 02:02:57;;;;;;;12.20;10.35;;;;;;;;;;4879655;28;100142;-77
2023/04/19 02:05:24;;;;;;;11.13;10.05;;;;;;;;;;4887132;28;99454;-77
2023/04/19 02:07:52;;;;;;;11.88;10.00;;;;;;;;;;4885892;28;101163;-76
2023/04/19 02:10:19;;;;;;;14.18;10.30;;;;;;;;;;4887605;28;98981;-76
2023/04/19 02:12:45;;;;;;;17.10;11.65;;;;;;;;;;4888372;28;101408;-76
2023/04/19 02:15:12;;;;;;;14.20;11.13;;;;;;;;;;4883337;28;100943;-77
2023/04/19 02:17:39;;;;;;;12.15;10.10;;;;;;;;;;4882817;28;100263;-76
2023/04/19 02:20:07;;;;;;;13.55;10.77;;;;;;;;;;4887494;28;99115;-76
2023/04/19 02:22:33;;;;;;;13.70;10.93;;;;;;;;;;4885702;28;100457;-76
2023/04/19 02:25:00;;;;;;;11.98;9.85;;;;;;;;;;4887581;28;99134;-76
2023/04/19 02:27:29;;;;;;;16.80;10.65;;;;;;;;;;4884930;28;99805;-77
2023/04/19 02:29:55;;;;;;;11.07;9.60;;;;;;;;;;4887527;28;99703;-77
2023/04/19 02:32:22;;;;;;;12.25;10.20;;;;;;;;;;4886724;28;99059;-77
2023/04/19 02:34:49;;;;;;;11.10;9.23;;;;;;;;;;4889295;28;101631;-76
2023/04/19 02:37:17;;;;;;;11.10;9.20;;;;;;;;;;4887121;28;100293;-77
2023/04/19 02:39:44;;;;;;;10.82;9.73;;;;;;;;;;4886326;28;99023;-76
2023/04/19 02:42:11;;;;;;;12.77;8.40;;;;;;;;;;4887530;28;99220;-76
2023/04/19 02:44:37;;;;;;;12.45;7.93;;;;;;;;;;4887922;28;98337;-76
2023/04/19 02:47:03;;;;;;;13.35;10.48;;;;;;;;;;4885260;28;100245;-77
2023/04/19 02:49:35;;;;;;;14.07;10.38;;;;;;;;;;4886007;28;100305;-77
2023/04/19 02:52:03;;;;;;;9.20;8.30;;;;;;;;;;4886018;28;99947;-76
2023/04/19 02:54:32;;;;;;;14.05;9.55;;;;;;;;;;4881733;28;101352;-77
2023/04/19 02:56:58;;;;;;;10.23;8.63;;;;;;;;;;4887548;28;101238;-76
2023/04/19 02:59:25;;;;;;;10.75;7.78;;;;;;;;;;4887179;28;98819;-77
2023/04/19 03:01:51;;;;;;;7.72;6.97;;;;;;;;;;4884785;28;99744;-76
2023/04/19 03:04:18;;;;;;;17.92;10.40;;;;;;;;;;4885692;28;99170;-77
2023/04/19 03:06:45;;;;;;;10.52;9.45;;;;;;;;;;4887771;28;98953;-77
2023/04/19 03:09:12;;;;;;;9.75;8.85;;;;;;;;;;4887332;28;100666;-77
2023/04/19 03:11:38;;;;;;;11.27;9.13;;;;;;;;;;4888784;28;101891;-77
2023/04/19 03:14:05;;;;;;;10.93;8.23;;;;;;;;;;4887687;28;101706;-77
2023/04/19 03:16:32;;;;;;;9.70;8.70;;;;;;;;;;4890790;28;100412;-77
2023/04/19 03:18:58;;;;;;;11.15;8.43;;;;;;;;;;4888796;28;101806;-76
2023/04/19 03:21:29;;;;;;;11.73;8.13;;;;;;;;;;4888804;28;100191;-77
2023/04/19 03:23:55;;;;;;;9.82;8.65;;;;;;;;;;4889566;28;99142;-77
2023/04/19 03:26:23;;;;;;;7.90;7.18;;;;;;;;;;4888587;28;101340;-77
2023/04/19 03:28:52;;;;;;;8.43;7.40;;;;;;;;;;4888179;28;99916;-77
2023/04/19 03:31:31;;;;;;;9.18;8.32;;;;;;;;;;4881768;28;102175;-76
2023/04/19 03:33:58;;;;;;;11.15;8.65;;;;;;;;;;4888876;28;100960;-76
2023/04/19 03:36:30;;;;;;;12.77;8.73;;;;;;;;;;4887661;28;99356;-77
2023/04/19 03:38:57;;;;;;;6.90;6.00;;;;;;;;;;4891613;28;102014;-76
2023/04/19 03:41:24;;;;;;;11.00;7.32;;;;;;;;;;4888829;28;99402;-77
2023/04/19 03:44:14;;;;;;;9.23;8.40;;;;;;;;;;4880456;28;99002;-76
2023/04/19 03:46:45;;;;;;;8.65;7.75;;;;;;;;;;4888380;28;98890;-77
2023/04/19 03:49:13;;;;;;;8.88;7.65;;;;;;;;;;4888263;28;101394;-76
2023/04/19 03:51:42;;;;;;;8.05;7.15;;;;;;;;;;4887465;28;101271;-76
2023/04/19 03:54:09;;;;;;;9.48;7.72;;;;;;;;;;4889539;28;99452;-76
2023/04/19 03:56:36;;;;;;;8.63;7.80;;;;;;;;;;4887854;28;101289;-76
2023/04/19 03:59:02;;;;;;;8.02;7.25;;;;;;;;;;4887978;28;100430;-76
2023/04/19 04:01:32;;;;;;;9.57;8.45;;;;;;;;;;4891016;28;99974;-76
2023/04/19 04:04:00;;;;;;;8.93;8.13;;;;;;;;;;4884785;28;100369;-76
2023/04/19 04:06:30;;;;;;;9.27;7.47;;;;;;;;;;4887543;28;101223;-76
2023/04/19 04:08:56;;;;;;;8.68;7.82;;;;;;;;;;4887733;28;102174;-76
2023/04/19 04:11:24;;;;;;;8.27;7.45;;;;;;;;;;4886999;28;101478;-77
2023/04/19 04:13:51;;;;;;;9.98;8.13;;;;;;;;;;4888139;28;101196;-77
2023/04/19 04:16:22;;;;;;;10.65;8.52;;;;;;;;;;4887089;28;101025;-77
2023/04/19 04:18:51;;;;;;;8.13;7.25;;;;;;;;;;4886073;28;102314;-76
2023/04/19 04:21:17;;;;;;;8.15;7.45;;;;;;;;;;4888857;28;99066;-77
2023/04/19 04:23:46;;;;;;;9.65;8.60;;;;;;;;;;4892914;28;99834;-77
2023/04/19 04:26:20;;;;;;;10.52;7.90;;;;;;;;;;4886871;28;101521;-77
2023/04/19 04:29:06;;;;;;;9.02;6.72;;;;;;;;;;4887727;28;101565;-76
2023/04/19 04:31:34;;;;;;;9.32;7.22;;;;;;;;;;4887157;28;102388;-77
2023/04/19 04:34:02;;;;;;;9.15;6.72;;;;;;;;;;4886884;28;100128;-76
2023/04/19 04:36:31;;;;;;;10.43;7.68;;;;;;;;;;4888331;28;99117;-77
2023/04/19 04:39:00;;;;;;;7.93;7.13;;;;;;;;;;4887355;28;99845;-77
2023/04/19 04:41:30;;;;;;;10.38;7.90;;;;;;;;;;4887378;28;100894;-76
2023/04/19 04:44:00;;;;;;;6.22;5.63;;;;;;;;;;4903882;28;101458;-76
2023/04/19 04:46:46;;;;;;;11.20;7.13;;;;;;;;;;4898819;28;102116;-77
2023/04/19 04:49:18;;;;;;;8.75;7.88;;;;;;;;;;4888109;28;101562;-76
2023/04/19 04:51:44;;;;;;;8.68;7.43;;;;;;;;;;4884083;28;101831;-76
2023/04/19 04:54:12;;;;;;;13.18;8.05;;;;;;;;;;4882030;28;101312;-76
2023/04/19 04:56:39;;;;;;;9.52;8.35;;;;;;;;;;4886663;28;101134;-75
2023/04/19 04:59:06;;;;;;;8.63;7.82;;;;;;;;;;4884318;28;101419;-76
2023/04/19 05:01:36;;;;;;;9.52;7.53;;;;;;;;;;4885245;28;101338;-76
2023/04/19 05:04:03;;;;;;;9.27;7.60;;;;;;;;;;4887350;28;98948;-77
2023/04/19 05:06:32;;;;;;;8.98;8.10;;;;;;;;;;4886825;28;101550;-77
2023/04/19 05:08:59;;;;;;;10.88;8.18;;;;;;;;;;4888788;28;99276;-76
2023/04/19 05:11:31;;;;;;;;;;;;;;;;;;4887096;28;100323;-77
2023/04/19 05:13:58;;;;;;;8.75;7.53;;;;;;;;;;4887862;28;99106;-77
2023/04/19 05:16:25;;;;;;;13.27;7.85;;;;;;;;;;4886509;28;98683;-77
2023/04/19 05:18:53;;;;;;;8.75;7.75;;;;;;;;;;4886949;28;101875;-76
2023/04/19 05:21:20;;;;;;;8.00;6.43;;;;;;;;;;4887084;28;100324;-77
2023/04/19 05:23:47;;;;;;;9.07;7.47;;;;;;;;;;4886540;28;101516;-76
2023/04/19 05:26:14;;;;;;;11.63;7.82;;;;;;;;;;4887114;28;101645;-76
2023/04/19 05:28:42;;;;;;;7.47;5.70;;;;;;;;;;4889288;28;101373;-76
2023/04/19 05:31:14;;;;;;;10.07;7.45;;;;;;;;;;4885744;28;100698;-76
2023/04/19 05:33:54;;;;;;;8.15;6.32;;;;;;;;;;4903055;28;100926;-77
2023/04/19 05:36:20;;;;;;;8.27;7.15;;;;;;;;;;4885903;28;101676;-76
2023/04/19 05:38:47;;;;;;;9.07;6.40;;;;;;;;;;4887053;28;98724;-76
2023/04/19 05:41:14;;;;;;;8.30;7.20;;;;;;;;;;4883548;28;101101;-76
2023/04/19 05:43:41;;;;;;;6.25;5.45;;;;;;;;;;4885013;28;99732;-76
2023/04/19 05:46:07;;;;;;;14.52;7.38;;;;;;;;;;4886322;28;100478;-76
2023/04/19 05:48:34;;;;;;;14.98;6.65;;;;;;;;;;4888721;28;99195;-76
2023/04/19 05:51:27;;;;;;;13.32;6.93;;;;;;;;;;4888398;28;99956;-76
2023/04/19 05:53:59;;;;;;;7.28;6.20;;;;;;;;;;4886991;28;101766;-77
2023/04/19 05:56:25;;;;;;;6.57;5.97;;;;;;;;;;4885759;28;101175;-77
2023/04/19 05:58:55;;;;;;;6.45;5.85;;;;;;;;;;4886222;28;101084;-76
2023/04/19 06:01:22;;;;;;;6.80;5.35;;;;;;;;;;4886648;28;101653;-77
2023/04/19 06:03:51;;;;;;;13.52;6.68;;;;;;;;;;4886180;28;100137;-76
2023/04/19 06:06:20;;;;;;;9.85;6.43;;;;;;;;;;4886673;28;100238;-77
2023/04/19 06:08:47;;;;;;;15.73;6.63;;;;;;;;;;4886408;28;101752;-76
2023/04/19 06:11:14;;;;;;;14.52;6.22;;;;;;;;;;4885316;28;100204;-76
2023/04/19 06:13:54;;;;;;;10.35;4.75;;;;;;;;;;4891589;28;100311;-78
2023/04/19 06:16:20;;;;;;;8.88;5.47;;;;;;;;;;4886254;28;100981;-78
2023/04/19 06:18:47;;;;;;;9.77;5.05;;;;;;;;;;4886678;28;99318;-77
2023/04/19 06:21:13;;;;;;;7.78;5.68;;;;;;;;;;4887925;28;100148;-78
2023/04/19 06:23:40;;;;;;;9.15;5.05;;;;;;;;;;4887319;28;100014;-77
2023/04/19 06:26:06;;;;;;;5.03;4.55;;;;;;;;;;4888639;28;100283;-76
2023/04/19 06:28:32;;;;;;;6.70;4.95;;;;;;;;;;4886284;28;100093;-78
2023/04/19 06:30:59;;;;;;;12.80;4.32;;;;;;;;;;4886195;28;99134;-77
2023/04/19 06:33:25;;;;;;;8.20;4.95;;;;;;;;;;4886613;28;100565;-78
2023/04/19 06:35:51;;;;;;;4.40;4.00;;;;;;;;;;4889879;28;100673;-77
2023/04/19 06:38:18;;;;;;;7.47;4.82;;;;;;;;;;4887777;28;100083;-78
2023/04/19 06:40:44;;;;;;;6.15;5.00;;;;;;;;;;4885472;28;99766;-78
2023/04/19 06:43:10;;;;;;;10.40;4.38;;;;;;;;;;4889587;28;100070;-77
2023/04/19 06:45:37;;;;;;;13.52;4.38;;;;;;;;;;4889099;28;99421;-77
2023/04/19 06:48:03;;;;;;;12.20;3.97;;;;;;;;;;4892957;28;100160;-78
2023/04/19 06:50:30;;;;;;;4.63;4.22;;;;;;;;;;4897077;28;98895;-78
2023/04/19 06:52:56;;;;;;;7.07;4.35;;;;;;;;;;4891319;28;99428;-78
2023/04/19 06:55:23;;;;;;;6.28;3.50;;;;;;;;;;4886869;28;100190;-78
2023/04/19 06:57:49;;;;;;;3.83;2.63;;;;;;;;;;4888358;28;100239;-77
2023/04/19 07:00:16;;;;;;;5.30;3.83;;;;;;;;;;4886964;28;100793;-77
2023/04/19 07:02:42;;;;;;;13.68;4.32;;;;;;;;;;4887797;28;101089;-76
2023/04/19 07:05:11;;;;;;;7.85;3.90;;;;;;;;;;4890002;28;100135;-77
2023/04/19 07:07:40;;;;;;;7.25;3.00;;;;;;;;;;4889475;28;98952;-76
2023/04/19 07:10:07;;;;;;;5.60;3.38;;;;;;;;;;4890916;28;99039;-77
2023/04/19 07:12:33;;;;;;;8.02;4.55;;;;;;;;;;4889547;28;100330;-77
2023/04/19 07:15:00;;;;;;;9.38;3.80;;;;;;;;;;4889096;28;100202;-77
2023/04/19 07:17:26;;;;;;;3.72;2.92;;;;;;;;;;4891712;28;99817;-78
2023/04/19 07:19:53;;;;;;;11.70;3.78;;;;;;;;;;4892759;28;101101;-77
2023/04/19 07:22:21;;;;;;;6.63;3.55;;;;;;;;;;4889534;28;98999;-78
2023/04/19 07:24:47;;;;;;;4.05;3.03;;;;;;;;;;4890026;28;101199;-78
2023/04/19 07:27:15;;;;;;;4.85;2.63;;;;;;;;;;4890453;28;100183;-78
2023/04/19 07:29:41;;;;;;;3.58;3.28;;;;;;;;;;4886230;28;98549;-77
2023/04/19 07:32:08;;;;;;;5.13;4.70;;;;;;;;;;4890577;28;100485;-78
2023/04/19 07:34:37;;;;;;;4.43;3.05;;;;;;;;;;4889853;28;99314;-78
2023/04/19 07:37:04;;;;;;;2.42;2.22;;;;;;;;;;4889394;28;99791;-77
2023/04/19 07:39:30;;;;;;;5.05;3.20;;;;;;;;;;4893326;28;99491;-77
2023/04/19 07:41:57;;;;;;;4.45;3.47;;;;;;;;;;4892293;28;98259;-78
2023/04/19 07:44:24;;;;;;;6.70;3.03;;;;;;;;;;4889602;28;100338;-77
2023/04/19 07:46:51;;;;;;;4.35;3.22;;;;;;;;;;4890617;28;100069;-77
2023/04/19 07:49:18;;;;;;;6.38;2.72;;;;;;;;;;4891634;28;100162;-77
2023/04/19 07:51:44;;;;;;;4.57;3.13;;;;;;;;;;4911979;28;100664;-77
2023/04/19 07:54:11;;;;;;;3.30;2.97;;;;;;;;;;4915229;28;98774;-77
2023/04/19 07:56:37;;;;;;;4.30;3.30;;;;;;;;;;4908435;28;102601;-75
2023/04/19 07:59:03;;;;;;;3.85;2.58;;;;;;;;;;4912746;28;99646;-76
2023/04/19 08:01:35;;;;;;;7.38;3.25;;;;;;;;;;4913299;28;98906;-76
2023/04/19 08:04:02;;;;;;;3.53;2.95;;;;;;;;;;4919488;28;100650;-76
2023/04/19 08:06:29;;;;;;;9.48;3.25;;;;;;;;;;4891089;28;98895;-78
2023/04/19 08:08:56;;;;;;;2.80;2.47;;;;;;;;;;4880548;28;100263;-76
2023/04/19 08:11:24;;;;;;;4.50;3.10;;;;;;;;;;4886226;28;99492;-77
2023/04/19 08:13:50;;;;;;;2.60;2.40;;;;;;;;;;4886062;28;99605;-77
2023/04/19 08:16:34;;;;;;;3.60;2.60;;;;;;;;;;4885546;28;100946;-76
2023/04/19 08:19:04;;;;;;;2.45;2.33;;;;;;;;;;4885384;28;100067;-77
2023/04/19 08:21:30;;;;;;;2.20;2.10;;;;;;;;;;4886303;28;99356;-77
2023/04/19 08:24:06;;;;;;;2.65;2.45;;;;;;;;;;4885521;28;99734;-77
2023/04/19 08:26:33;;;;;;;4.97;2.50;;;;;;;;;;4888802;28;100032;-77
2023/04/19 08:28:59;;;;;;;12.70;2.50;;;;;;;;;;4889002;28;100027;-77
2023/04/19 08:31:25;;;;;;;3.60;2.58;;;;;;;;;;4887236;28;99064;-77
2023/04/19 08:33:52;;;;;;;2.83;2.30;;;;;;;;;;4885650;28;100342;-77
2023/04/19 08:36:19;;;;;;;2.22;1.92;;;;;;;;;;4885608;28;99994;-77
2023/04/19 08:38:58;;;;;;;1.98;1.88;;;;;;;;;;4886671;28;100602;-77
2023/04/19 08:41:35;;;;;;;2.53;2.30;;;;;;;;;;4888457;28;100445;-76
2023/04/19 08:44:02;;;;;;;2.92;2.03;;;;;;;;;;4888079;28;100190;-77
2023/04/19 08:46:29;;;;;;;6.05;3.08;;;;;;;;;;4891030;28;100305;-76
2023/04/19 08:48:56;;;;;;;12.43;1.90;;;;;;;;;;4888687;28;100062;-77
2023/04/19 08:51:23;;;;;;;7.63;1.83;;;;;;;;;;4888320;28;100315;-77
2023/04/19 08:53:50;;;;;;;2.05;1.90;;;;;;;;;;4887769;28;100497;-77
2023/04/19 08:56:16;;;;;;;1.58;1.17;;;;;;;;;;4888356;28;99015;-77
2023/04/19 08:58:58;;;;;;;4.93;1.70;;;;;;;;;;4884825;28;100498;-77
2023/04/19 09:01:43;;;;;;;3.65;1.80;;;;;;;;;;4888372;28;99264;-77
2023/04/19 09:04:10;;;;;;;2.10;1.70;;;;;;;;;;4887413;28;100169;-77
2023/04/19 09:06:56;;;;;;;4.38;1.80;;;;;;;;;;4887785;28;100408;-77
2023/04/19 09:09:24;;;;;;;2.10;1.80;;;;;;;;;;4891248;28;100077;-77
2023/04/19 09:12:15;;;;;;;5.35;1.42;;;;;;;;;;4901839;28;100285;-76
2023/04/19 09:14:43;;;;;;;10.93;1.60;;;;;;;;;;4886327;28;100160;-77
2023/04/19 09:17:26;;;;;;;1.80;1.70;;;;;;;;;;4885834;28;100164;-78
2023/04/19 09:19:52;;;;;;;1.88;1.58;;;;;;;;;;4887901;28;100391;-77
2023/04/19 09:22:19;;;;;;;1.50;1.40;;;;;;;;;;4887598;28;99023;-77
2023/04/19 09:24:45;;;;;;;2.05;1.80;;;;;;;;;;4888078;28;99216;-77
2023/04/19 09:27:35;;;;;;;1.85;1.50;;;;;;;;;;4886689;28;100375;-77
2023/04/19 09:30:02;;;;;;;2.33;1.60;;;;;;;;;;4887690;28;99296;-77
2023/04/19 09:32:43;;;;;;;1.85;1.75;;;;;;;;;;4890855;28;99667;-77
2023/04/19 09:35:09;;;;;;;3.42;1.55;;;;;;;;;;4887399;28;99484;-77
2023/04/19 09:37:40;;;;;;;1.73;1.63;;;;;;;;;;4887559;28;100324;-77
2023/04/19 09:40:27;;;;;;;1.77;1.67;;;;;;;;;;4886135;28;99615;-77
2023/04/19 09:42:54;;;;;;;1.27;1.27;;;;;;;;;;4887195;28;99844;-77
2023/04/19 09:45:44;;;;;;;2.47;2.30;;;;;;;;;;4888006;28;99043;-77
2023/04/19 09:48:11;;;;;;;2.45;2.25;;;;;;;;;;4887950;28;99014;-77
2023/04/19 09:51:07;;;;;;;2.00;1.90;;;;;;;;;;4885999;28;98911;-77
2023/04/19 09:53:39;;;;;;;2.08;1.50;;;;;;;;;;4888396;28;99108;-77
2023/04/19 09:56:06;;;;;;;1.60;1.50;;;;;;;;;;4885849;28;99348;-77
2023/04/19 09:58:32;;;;;;;1.52;1.42;;;;;;;;;;4887636;28;100641;-77
2023/04/19 10:01:17;;;;;;;1.77;1.17;;;;;;;;;;4887460;28;99524;-77
2023/04/19 10:03:47;;;;;;;1.88;1.38;;;;;;;;;;4886937;28;99228;-77
2023/04/19 10:06:15;;;;;;;4.07;1.50;;;;;;;;;;4888081;28;100230;-77
2023/04/19 10:09:03;;;;;;;5.45;1.42;;;;;;;;;;4880174;28;99677;-77
2023/04/19 10:11:32;;;;;;;1.30;1.30;;;;;;;;;;4886481;28;99903;-77
2023/04/19 10:14:00;;;;;;;4.82;1.90;;;;;;;;;;4884345;28;99684;-77
2023/04/19 10:16:29;;;;;;;2.97;1.70;;;;;;;;;;4896992;28;99637;-77
2023/04/19 10:18:56;;;;;;;10.38;1.80;;;;;;;;;;4899353;28;100192;-77
2023/04/19 10:21:23;;;;;;;1.40;1.30;;;;;;;;;;4889942;28;100025;-76
2023/04/19 10:23:50;;;;;;;3.88;1.70;;;;;;;;;;4889579;28;99109;-78
2023/04/19 10:26:18;;;;;;;7.63;1.40;;;;;;;;;;4890101;28;99889;-77
2023/04/19 10:28:46;;;;;;;1.60;1.50;;;;;;;;;;4890358;28;100560;-76
2023/04/19 10:31:13;;;;;;;6.53;1.75;;;;;;;;;;4888823;28;99209;-77
2023/04/19 10:33:40;;;;;;;2.20;1.83;;;;;;;;;;4890755;28;99674;-76
2023/04/19 10:36:14;;;;;;;4.32;1.77;;;;;;;;;;4890317;28;99678;-79
2023/04/19 10:38:42;;;;;;;1.52;1.40;;;;;;;;;;4893281;28;99588;-75
2023/04/19 10:41:13;;;;;;;1.13;1.13;;;;;;;;;;4890384;28;100272;-76
2023/04/19 10:43:56;;;;;;;4.15;2.17;;;;;;;;;;4890414;28;99240;-75
2023/04/19 10:46:27;;;;;;;1.50;1.40;;;;;;;;;;4880868;28;100082;-77
2023/04/19 10:48:58;;;;;;;8.03;1.57;;;;;;;;;;4891457;28;100989;-76
2023/04/19 10:51:28;;;;;;;3.13;1.75;;;;;;;;;;4888542;28;99334;-75
2023/04/19 10:53:56;;;;;;;1.88;1.63;;;;;;;;;;4878459;28;99867;-75
2023/04/19 10:56:31;;;;;;;3.15;1.50;;;;;;;;;;4882687;28;101005;-76
2023/04/19 10:59:06;;;;;;;2.90;1.17;;;;;;;;;;4876366;28;100843;-76
2023/04/19 11:01:34;;;;;;;3.25;1.83;;;;;;;;;;4889191;28;98949;-75
2023/04/19 11:04:01;;;;;;;6.70;2.00;;;;;;;;;;4888134;28;99368;-76
2023/04/19 11:06:28;;;;;;;2.03;1.52;;;;;;;;;;4887698;28;98671;-77
2023/04/19 11:08:56;;;;;;;1.60;1.50;;;;;;;;;;4889009;28;99727;-76
2023/04/19 11:11:24;;;;;;;1.77;1.67;;;;;;;;;;4887248;28;99907;-76
2023/04/19 11:13:52;;;;;;;1.83;1.73;;;;;;;;;;4881541;28;99990;-76
2023/04/19 11:16:18;;;;;;;2.42;2.17;;;;;;;;;;4886093;28;100184;-75
2023/04/19 11:18:54;;;;;;;1.73;1.63;;;;;;;;;;4892105;28;99195;-76
2023/04/19 11:21:22;;;;;;;3.22;1.63;;;;;;;;;;4889083;28;99893;-76
2023/04/19 11:24:04;;;;;;;4.32;1.80;;;;;;;;;;4891862;28;99839;-76
2023/04/19 11:26:30;;;;;;;7.45;2.97;;;;;;;;;;4887257;28;99853;-78
2023/04/19 11:28:57;;;;;;;2.80;2.60;;;;;;;;;;4887686;28;98984;-76
2023/04/19 11:31:24;;;;;;;4.57;1.80;;;;;;;;;;4886122;28;99844;-77
2023/04/19 11:33:50;;;;;;;6.80;1.60;;;;;;;;;;4889694;28;99986;-77
2023/04/19 11:36:17;;;;;;;2.08;1.98;;;;;;;;;;4887617;28;100896;-77
2023/04/19 11:38:47;;;;;;;4.32;1.80;;;;;;;;;;4891045;28;100008;-74
2023/04/19 11:41:14;;;;;;;1.83;1.73;;;;;;;;;;4884497;28;99121;-76
2023/04/19 11:43:43;;;;;;;1.77;1.67;;;;;;;;;;4889740;28;100307;-77
2023/04/19 11:46:11;;;;;;;3.28;1.85;;;;;;;;;;4906802;28;98693;-77
2023/04/19 11:48:49;;;;;;;5.07;2.00;;;;;;;;;;4887238;28;100850;-74
2023/04/19 11:51:15;;;;;;;5.82;2.13;;;;;;;;;;4887914;28;99423;-77
2023/04/19 11:53:45;;;;;;;3.03;1.60;;;;;;;;;;4889991;28;100354;-77
2023/04/19 11:56:14;;;;;;;1.70;1.60;;;;;;;;;;4886170;28;100671;-76
2023/04/19 11:58:47;;;;;;;14.65;2.30;;;;;;;;;;4887759;28;100112;-77
2023/04/19 12:01:19;;;;;;;8.07;3.40;;;;;;;;;;4888874;28;100492;-77
2023/04/19 12:03:47;;;;;;;3.10;1.75;;;;;;;;;;4882070;28;99147;-77
2023/04/19 12:06:21;;;;;;;3.22;1.92;;;;;;;;;;4892541;28;99958;-76
2023/04/19 12:08:50;;;;;;;4.88;2.03;;;;;;;;;;4882427;28;99312;-77
2023/04/19 12:11:23;;;;;;;7.25;1.90;;;;;;;;;;4880477;28;100021;-76
2023/04/19 12:14:08;;;;;;;2.25;2.10;;;;;;;;;;4889827;28;99178;-77
2023/04/19 12:16:35;;;;;;;4.03;1.90;;;;;;;;;;4888341;28;100009;-76
2023/04/19 12:19:16;;;;;;;6.15;2.10;;;;;;;;;;4887582;28;98817;-76
2023/04/19 12:21:43;;;;;;;1.67;1.58;;;;;;;;;;4887945;28;101813;-76
2023/04/19 12:24:13;;;;;;;2.58;1.75;;;;;;;;;;4884705;28;99752;-76
2023/04/19 12:26:55;;;;;;;2.38;2.15;;;;;;;;;;4888162;28;100003;-76
2023/04/19 12:29:22;;;;;;;1.65;1.55;;;;;;;;;;4889204;28;100040;-76
2023/04/19 12:31:48;;;;;;;5.45;2.28;;;;;;;;;;4885147;28;100014;-76
2023/04/19 12:34:15;;;;;;;8.02;2.30;;;;;;;;;;4886302;28;99400;-75
2023/04/19 12:36:41;;;;;;;8.13;2.70;;;;;;;;;;4887606;28;100464;-76
2023/04/19 12:39:08;;;;;;;6.13;2.30;;;;;;;;;;4887372;28;99206;-76
2023/04/19 12:41:34;;;;;;;3.55;2.22;;;;;;;;;;4887665;28;99678;-76
2023/04/19 12:44:00;;;;;;;2.63;2.40;;;;;;;;;;4888770;28;98973;-76
2023/04/19 12:46:27;;;;;;;2.55;2.15;;;;;;;;;;4887748;28;99394;-75
2023/04/19 12:48:53;;;;;;;2.55;1.88;;;;;;;;;;4887992;28;99092;-74
2023/04/19 12:51:20;;;;;;;2.28;2.08;;;;;;;;;;4886769;28;101044;-75
2023/04/19 12:53:47;;;;;;;2.50;2.30;;;;;;;;;;4888811;28;100924;-76
2023/04/19 12:56:14;;;;;;;10.20;2.38;;;;;;;;;;4888284;28;100192;-74
2023/04/19 12:58:41;;;;;;;2.55;2.30;;;;;;;;;;4888178;28;99158;-75
2023/04/19 13:01:13;;;;;;;4.13;1.98;;;;;;;;;;4959728;27;4171007;-76
2023/04/19 13:03:39;;;;;;;3.92;2.28;;;;;;;;;;5071769;27;98120;-76
2023/04/19 13:06:06;;;;;;;6.45;2.53;;;;;;;;;;5088197;27;99897;-76
2023/04/19 13:08:32;;;;;;;3.70;2.35;;;;;;;;;;5080879;27;99379;-77
2023/04/19 13:11:11;;;;;;;3.95;1.90;;;;;;;;;;5087656;27;99024;-76
2023/04/19 13:13:38;;;;;;;3.60;2.13;;;;;;;;;;5088527;27;98252;-76
2023/04/19 13:16:05;;;;;;;4.97;2.25;;;;;;;;;;5087853;27;98658;-75
2023/04/19 13:18:31;;;;;;;6.78;2.63;;;;;;;;;;5086268;27;99907;-76
2023/04/19 13:20:58;;;;;;;5.10;3.22;;;;;;;;;;5079727;27;98560;-76
2023/04/19 13:23:24;;;;;;;2.65;2.45;;;;;;;;;;5078584;27;99525;-76
2023/04/19 13:25:51;;;;;;;5.28;2.38;;;;;;;;;;5083887;27;98254;-76
2023/04/19 13:28:19;;;;;;;9.00;2.40;;;;;;;;;;5085841;27;98736;-76
2023/04/19 13:30:46;;;;;;;5.05;2.35;;;;;;;;;;5085635;27;99204;-76
2023/04/19 13:33:13;;;;;;;4.28;2.35;;;;;;;;;;5087013;27;98272;-75
2023/04/19 13:35:39;;;;;;;3.55;2.10;;;;;;;;;;5086527;27;99529;-75
2023/04/19 13:38:06;;;;;;;4.07;2.45;;;;;;;;;;5081643;27;99285;-75
2023/04/19 13:40:32;;;;;;;2.45;2.25;;;;;;;;;;5075114;27;98339;-76
2023/04/19 13:42:59;;;;;;;2.03;1.92;;;;;;;;;;5078729;27;99406;-76
2023/04/19 13:45:25;;;;;;;1.70;1.60;;;;;;;;;;5079336;27;98229;-76
2023/04/19 13:47:52;;;;;;;2.67;1.77;;;;;;;;;;5086138;27;99438;-77
2023/04/19 13:50:18;;;;;;;2.08;1.98;;;;;;;;;;5084404;27;99847;-76
2023/04/19 13:52:45;;;;;;;5.13;1.83;;;;;;;;;;5085918;27;98412;-76
2023/04/19 13:55:11;;;;;;;2.05;1.88;;;;;;;;;;5082085;27;99401;-76
2023/04/19 13:57:37;;;;;;;2.92;2.42;;;;;;;;;;5085266;27;100094;-77
2023/04/19 14:00:04;;;;;;;9.00;2.05;;;;;;;;;;5086773;27;98389;-76
2023/04/19 14:02:32;;;;;;;2.13;1.40;;;;;;;;;;5081419;27;98274;-76
2023/04/19 14:04:59;;;;;;;8.13;1.95;;;;;;;;;;5089814;27;100247;-76
2023/04/19 14:07:26;;;;;;;3.33;1.35;;;;;;;;;;5086362;27;99525;-76
2023/04/19 14:09:53;;;;;;;3.78;2.05;;;;;;;;;;5085387;27;100126;-77
2023/04/19 14:12:19;;;;;;;2.75;1.48;;;;;;;;;;5071567;27;98241;-76
2023/04/19 14:14:46;;;;;;;3.95;1.70;;;;;;;;;;5072949;27;100093;-76
2023/04/19 14:17:12;;;;;;;5.32;1.73;;;;;;;;;;5070988;27;100045;-76
2023/04/19 14:19:39;;;;;;;3.83;1.80;;;;;;;;;;5068359;27;98325;-76
2023/04/19 14:22:05;;;;;;;5.50;2.20;;;;;;;;;;5072786;27;99436;-77
2023/04/19 14:24:31;;;;;;;2.53;2.22;;;;;;;;;;5070505;27;100012;-75
2023/04/19 14:26:58;;;;;;;2.42;1.85;;;;;;;;;;5073228;27;98266;-75
2023/04/19 14:29:36;;;;;;;2.58;2.35;;;;;;;;;;5060078;27;99358;-75
2023/04/19 14:32:03;;;;;;;5.15;1.95;;;;;;;;;;5062814;27;100352;-75
2023/04/19 14:34:50;;;;;;;2.03;1.92;;;;;;;;;;5070243;27;99318;-75
2023/04/19 14:37:17;;;;;;;6.22;2.10;;;;;;;;;;5066403;27;99073;-76
2023/04/19 14:39:43;;;;;;;3.78;1.88;;;;;;;;;;5064532;27;98330;-75